sensor_id;sensor_type;location;lat;lon;timestamp;pressure;altitude;pressure_sealevel;temperature;humidity
68489;BME280;55481;48.764;8.936;2022-12-10T00:01:07;95700;;;0.3;85.5
68489;BME280;55481;48.764;8.936;2022-12-10T00:03:37;95700;;;0.3;85.5
68489;BME280;55481;48.764;8.936;2022-12-10T00:06:09;95700;;;0.3;85.5
68489;BME280;55481;48.764;8.936;2022-12-10T00:08:45;95700;;;0.4;85.5
68489;BME280;55481;48.764;8.936;2022-12-10T00:11:16;95700;;;0.3;85.5
68489;BME280;55481;48.764;8.936;2022-12-10T00:16:12;95700;;;0.4;85.5
68489;BME280;55481;48.764;8.936;2022-12-10T00:21:13;95710;;;0.5;85.5
68489;BME280;55481;48.764;8.936;2022-12-10T00:23:43;95710;;;0.5;85
68489;BME280;55481;48.764;8.936;2022-12-10T00:26:15;95710;;;0.4;85
68489;BME280;55481;48.764;8.936;2022-12-10T00:28:45;95710;;;0.5;85
68489;BME280;55481;48.764;8.936;2022-12-10T00:31:18;95710;;;0.5;85
68489;BME280;55481;48.764;8.936;2022-12-10T00:33:46;95710;;;0.5;85
68489;BME280;55481;48.764;8.936;2022-12-10T00:36:21;95710;;;0.5;84.5
68489;BME280;55481;48.764;8.936;2022-12-10T00:38:48;95700;;;0.4;85
68489;BME280;55481;48.764;8.936;2022-12-10T00:41:19;95710;;;0.4;85
68489;BME280;55481;48.764;8.936;2022-12-10T00:48:51;95710;;;0.4;85
68489;BME280;55481;48.764;8.936;2022-12-10T00:51:23;95710;;;0.5;85
68489;BME280;55481;48.764;8.936;2022-12-10T00:53:53;95710;;;0.4;85
68489;BME280;55481;48.764;8.936;2022-12-10T00:56:24;95720;;;0.3;85
68489;BME280;55481;48.764;8.936;2022-12-10T00:59:01;95720;;;0.4;85.5
68489;BME280;55481;48.764;8.936;2022-12-10T01:01:34;95730;;;0.6;85
68489;BME280;55481;48.764;8.936;2022-12-10T01:04:04;95730;;;0.5;84.5
68489;BME280;55481;48.764;8.936;2022-12-10T01:11:43;95730;;;0.4;85
68489;BME280;55481;48.764;8.936;2022-12-10T01:14:13;95730;;;0.3;85
68489;BME280;55481;48.764;8.936;2022-12-10T01:16:37;95730;;;0.4;85
68489;BME280;55481;48.764;8.936;2022-12-10T01:19:07;95740;;;0.4;85
68489;BME280;55481;48.764;8.936;2022-12-10T01:29:17;95750;;;0.3;85
68489;BME280;55481;48.764;8.936;2022-12-10T01:31:49;95760;;;0.3;85
68489;BME280;55481;48.764;8.936;2022-12-10T01:34:17;95760;;;0.2;85
68489;BME280;55481;48.764;8.936;2022-12-10T01:39:12;95760;;;0.4;85
68489;BME280;55481;48.764;8.936;2022-12-10T01:41:44;95760;;;0.4;85
68489;BME280;55481;48.764;8.936;2022-12-10T01:51:58;95760;;;0.4;84.5
68489;BME280;55481;48.764;8.936;2022-12-10T01:54:22;95760;;;0.4;84.5
68489;BME280;55481;48.764;8.936;2022-12-10T01:59:15;95760;;;0.4;85
68489;BME280;55481;48.764;8.936;2022-12-10T02:01:49;95760;;;0.4;85
68489;BME280;55481;48.764;8.936;2022-12-10T02:05:00;95760;;;0.5;85
68489;BME280;55481;48.764;8.936;2022-12-10T02:14:16;95760;;;0.5;85
68489;BME280;55481;48.764;8.936;2022-12-10T02:16:55;95760;;;0.5;85
68489;BME280;55481;48.764;8.936;2022-12-10T02:19:26;95760;;;0.5;85
68489;BME280;55481;48.764;8.936;2022-12-10T02:21:47;95760;;;0.4;85
68489;BME280;55481;48.764;8.936;2022-12-10T02:26:51;95760;;;0.2;85.5
68489;BME280;55481;48.764;8.936;2022-12-10T02:34:34;95740;;;0.4;85.5
68489;BME280;55481;48.764;8.936;2022-12-10T02:39:31;95730;;;0.3;85.5
68489;BME280;55481;48.764;8.936;2022-12-10T02:44:37;95720;;;0.3;85
68489;BME280;55481;48.764;8.936;2022-12-10T02:47:06;95720;;;0.4;85
68489;BME280;55481;48.764;8.936;2022-12-10T02:49:37;95720;;;0.3;85
68489;BME280;55481;48.764;8.936;2022-12-10T02:54:34;95710;;;0.3;85
68489;BME280;55481;48.764;8.936;2022-12-10T02:57:03;95710;;;0.2;85
68489;BME280;55481;48.764;8.936;2022-12-10T02:59:33;95720;;;0.3;85.5
68489;BME280;55481;48.764;8.936;2022-12-10T03:02:29;95730;;;0.3;85.5
68489;BME280;55481;48.764;8.936;2022-12-10T03:09:45;95740;;;0.1;85.5
68489;BME280;55481;48.764;8.936;2022-12-10T03:12:18;95740;;;0.1;85.5
68489;BME280;55481;48.764;8.936;2022-12-10T03:17:07;95740;;;0.1;86
68489;BME280;55481;48.764;8.936;2022-12-10T03:19:40;95730;;;0.3;85.5
68489;BME280;55481;48.764;8.936;2022-12-10T03:22:10;95710;;;0.3;85.5
68489;BME280;55481;48.764;8.936;2022-12-10T03:24:40;95700;;;0.3;85
68489;BME280;55481;48.764;8.936;2022-12-10T03:27:19;95710;;;0.2;85
68489;BME280;55481;48.764;8.936;2022-12-10T03:29:51;95720;;;0.2;85
68489;BME280;55481;48.764;8.936;2022-12-10T03:37:22;95730;;;0.3;85
68489;BME280;55481;48.764;8.936;2022-12-10T03:39:52;95730;;;0.2;84.5
68489;BME280;55481;48.764;8.936;2022-12-10T03:42:22;95730;;;0.2;85
68489;BME280;55481;48.764;8.936;2022-12-10T03:44:52;95740;;;0.2;85
68489;BME280;55481;48.764;8.936;2022-12-10T03:47:23;95750;;;0.1;84.5
68489;BME280;55481;48.764;8.936;2022-12-10T03:49:53;95750;;;0.1;84.5
68489;BME280;55481;48.764;8.936;2022-12-10T03:52:17;95750;;;0.1;84.5
68489;BME280;55481;48.764;8.936;2022-12-10T03:54:48;95750;;;0.1;84.5
68489;BME280;55481;48.764;8.936;2022-12-10T03:57:26;95750;;;0;85
68489;BME280;55481;48.764;8.936;2022-12-10T04:04:58;95750;;;0;85
68489;BME280;55481;48.764;8.936;2022-12-10T04:07:28;95750;;;0;84.5
68489;BME280;55481;48.764;8.936;2022-12-10T04:12:22;95760;;;0;84.5
68489;BME280;55481;48.764;8.936;2022-12-10T04:14:53;95760;;;0.1;84.5
68489;BME280;55481;48.764;8.936;2022-12-10T04:17:24;95770;;;0.1;84.5
68489;BME280;55481;48.764;8.936;2022-12-10T04:19:54;95760;;;0;85
68489;BME280;55481;48.764;8.936;2022-12-10T04:22:26;95770;;;0.1;85
68489;BME280;55481;48.764;8.936;2022-12-10T04:25:04;95760;;;0.4;85
68489;BME280;55481;48.764;8.936;2022-12-10T04:27:40;95770;;;0.3;85
68489;BME280;55481;48.764;8.936;2022-12-10T04:30:17;95760;;;0.3;84.5
68489;BME280;55481;48.764;8.936;2022-12-10T04:35:04;95770;;;0.3;84.5
68489;BME280;55481;48.764;8.936;2022-12-10T04:37:34;95770;;;0.3;84.5
68489;BME280;55481;48.764;8.936;2022-12-10T04:40:04;95770;;;0.1;84.5
68489;BME280;55481;48.764;8.936;2022-12-10T04:42:34;95770;;;0.2;85
68489;BME280;55481;48.764;8.936;2022-12-10T04:45:18;95760;;;0.3;85
68489;BME280;55481;48.764;8.936;2022-12-10T04:47:35;95760;;;0.4;84.5
68489;BME280;55481;48.764;8.936;2022-12-10T04:52:29;95770;;;0.4;84.5
68489;BME280;55481;48.764;8.936;2022-12-10T04:55:00;95770;;;0.3;84.5
68489;BME280;55481;48.764;8.936;2022-12-10T04:57:37;95760;;;0.3;84.5
68489;BME280;55481;48.764;8.936;2022-12-10T05:00:09;95760;;;0.2;85
68489;BME280;55481;48.764;8.936;2022-12-10T05:03:38;95750;;;0.4;85
68489;BME280;55481;48.764;8.936;2022-12-10T05:06:10;95760;;;0.7;85
68489;BME280;55481;48.764;8.936;2022-12-10T05:08:33;95760;;;0.7;84.5
68489;BME280;55481;48.764;8.936;2022-12-10T05:11:05;95770;;;0.6;84.5
68489;BME280;55481;48.764;8.936;2022-12-10T05:18:36;95760;;;0.4;85
68489;BME280;55481;48.764;8.936;2022-12-10T05:24:04;95770;;;0.5;85
68489;BME280;55481;48.764;8.936;2022-12-10T05:26:22;95770;;;0.5;84.5
68489;BME280;55481;48.764;8.936;2022-12-10T05:28:52;95780;;;0.4;84.5
68489;BME280;55481;48.764;8.936;2022-12-10T05:33:45;95770;;;0.2;84.5
68489;BME280;55481;48.764;8.936;2022-12-10T05:36:17;95770;;;0.2;84.5
68489;BME280;55481;48.764;8.936;2022-12-10T05:38:47;95770;;;0.2;84.5
68489;BME280;55481;48.764;8.936;2022-12-10T05:41:19;95770;;;0.2;84.5
68489;BME280;55481;48.764;8.936;2022-12-10T05:46:33;95780;;;0.1;84.5
68489;BME280;55481;48.764;8.936;2022-12-10T05:49:09;95770;;;0.1;84.5
68489;BME280;55481;48.764;8.936;2022-12-10T05:53:57;95780;;;0.1;84.5
68489;BME280;55481;48.764;8.936;2022-12-10T05:56:27;95780;;;0;85
68489;BME280;55481;48.764;8.936;2022-12-10T05:58:52;95790;;;0.1;85
68489;BME280;55481;48.764;8.936;2022-12-10T06:01:22;95790;;;0.1;85
68489;BME280;55481;48.764;8.936;2022-12-10T06:03:52;95780;;;0.1;85
68489;BME280;55481;48.764;8.936;2022-12-10T06:06:25;95790;;;0.1;85
68489;BME280;55481;48.764;8.936;2022-12-10T06:09:01;95800;;;0.1;85
68489;BME280;55481;48.764;8.936;2022-12-10T06:13:50;95800;;;0;85
68489;BME280;55481;48.764;8.936;2022-12-10T06:16:20;95800;;;0.1;85
68489;BME280;55481;48.764;8.936;2022-12-10T06:18:51;95800;;;0.1;85
68489;BME280;55481;48.764;8.936;2022-12-10T06:21:22;95810;;;0.2;84.5
68489;BME280;55481;48.764;8.936;2022-12-10T06:23:53;95810;;;0.1;84.5
68489;BME280;55481;48.764;8.936;2022-12-10T06:26:24;95810;;;0;85
68489;BME280;55481;48.764;8.936;2022-12-10T06:28:54;95810;;;0;85
68489;BME280;55481;48.764;8.936;2022-12-10T06:31:25;95810;;;0;85
68489;BME280;55481;48.764;8.936;2022-12-10T06:41:28;95830;;;0;85
68489;BME280;55481;48.764;8.936;2022-12-10T06:43:59;95840;;;0.2;85
68489;BME280;55481;48.764;8.936;2022-12-10T06:46:43;95840;;;0.2;85
68489;BME280;55481;48.764;8.936;2022-12-10T06:49:13;95850;;;0.1;84.5
68489;BME280;55481;48.764;8.936;2022-12-10T06:54:14;95860;;;0.1;85
68489;BME280;55481;48.764;8.936;2022-12-10T06:56:38;95850;;;0;84.5
68489;BME280;55481;48.764;8.936;2022-12-10T06:59:09;95850;;;0;84.5
68489;BME280;55481;48.764;8.936;2022-12-10T07:01:40;95850;;;0;84.5
68489;BME280;55481;48.764;8.936;2022-12-10T07:04:17;95850;;;0;84.5
68489;BME280;55481;48.764;8.936;2022-12-10T07:06:47;95850;;;0;84.5
68489;BME280;55481;48.764;8.936;2022-12-10T07:11:42;95850;;;0;84.5
68489;BME280;55481;48.764;8.936;2022-12-10T07:14:15;95860;;;-0.2;84.5
68489;BME280;55481;48.764;8.936;2022-12-10T07:16:44;95850;;;-0.2;84.5
68489;BME280;55481;48.764;8.936;2022-12-10T07:19:15;95850;;;-0.2;84.5
68489;BME280;55481;48.764;8.936;2022-12-10T07:21:46;95850;;;-0.1;84.5
68489;BME280;55481;48.764;8.936;2022-12-10T07:26:47;95860;;;-0.1;84.5
68489;BME280;55481;48.764;8.936;2022-12-10T07:29:19;95860;;;0;84.5
68489;BME280;55481;48.764;8.936;2022-12-10T07:31:49;95860;;;0;84.5
68489;BME280;55481;48.764;8.936;2022-12-10T07:34:27;95870;;;-0.1;84.5
68489;BME280;55481;48.764;8.936;2022-12-10T07:36:58;95870;;;-0.1;84.5
68489;BME280;55481;48.764;8.936;2022-12-10T07:39:36;95870;;;0;84.5
68489;BME280;55481;48.764;8.936;2022-12-10T07:42:12;95870;;;-0.2;84.5
68489;BME280;55481;48.764;8.936;2022-12-10T07:44:29;95870;;;-0.1;84.5
68489;BME280;55481;48.764;8.936;2022-12-10T07:46:54;95880;;;0;84.5
68489;BME280;55481;48.764;8.936;2022-12-10T07:49:25;95880;;;0;84.5
68489;BME280;55481;48.764;8.936;2022-12-10T07:51:55;95890;;;0;84.5
68489;BME280;55481;48.764;8.936;2022-12-10T07:54:27;95900;;;0;84.5
68489;BME280;55481;48.764;8.936;2022-12-10T07:56:58;95900;;;0;84.5
68489;BME280;55481;48.764;8.936;2022-12-10T07:59:28;95900;;;0;84.5
68489;BME280;55481;48.764;8.936;2022-12-10T08:01:59;95900;;;0;84.5
68489;BME280;55481;48.764;8.936;2022-12-10T08:04:37;95890;;;0;84.5
68489;BME280;55481;48.764;8.936;2022-12-10T08:09:32;95890;;;0.1;84.5
68489;BME280;55481;48.764;8.936;2022-12-10T08:12:04;95890;;;0;84
68489;BME280;55481;48.764;8.936;2022-12-10T08:14:34;95890;;;0.2;84.5
68489;BME280;55481;48.764;8.936;2022-12-10T08:17:05;95890;;;0;84
68489;BME280;55481;48.764;8.936;2022-12-10T08:19:36;95890;;;0.1;84
68489;BME280;55481;48.764;8.936;2022-12-10T08:22:07;95890;;;0.2;84.5
68489;BME280;55481;48.764;8.936;2022-12-10T08:24:38;95890;;;0.3;84.5
68489;BME280;55481;48.764;8.936;2022-12-10T08:27:09;95890;;;0.4;84.5
68489;BME280;55481;48.764;8.936;2022-12-10T08:29:39;95890;;;0.2;84
68489;BME280;55481;48.764;8.936;2022-12-10T08:32:11;95880;;;0.4;84.5
68489;BME280;55481;48.764;8.936;2022-12-10T08:34:48;95890;;;0.4;84
68489;BME280;55481;48.764;8.936;2022-12-10T08:37:26;95900;;;0.4;84
68489;BME280;55481;48.764;8.936;2022-12-10T08:40:03;95900;;;0.3;84
68489;BME280;55481;48.764;8.936;2022-12-10T08:44:44;95910;;;0.4;84.5
68489;BME280;55481;48.764;8.936;2022-12-10T08:47:15;95910;;;0.5;84.5
68489;BME280;55481;48.764;8.936;2022-12-10T08:49:46;95910;;;0.5;84.5
68489;BME280;55481;48.764;8.936;2022-12-10T08:52:09;95920;;;0.6;84
68489;BME280;55481;48.764;8.936;2022-12-10T08:54:40;95920;;;0.6;84
68489;BME280;55481;48.764;8.936;2022-12-10T09:04:43;95920;;;0.4;84
68489;BME280;55481;48.764;8.936;2022-12-10T09:12:28;95930;;;0.4;84.5
68489;BME280;55481;48.764;8.936;2022-12-10T09:17:28;95940;;;0.6;84.5
68489;BME280;55481;48.764;8.936;2022-12-10T09:19:58;95940;;;0.6;84.5
68489;BME280;55481;48.764;8.936;2022-12-10T09:22:28;95950;;;0.5;84
68489;BME280;55481;48.764;8.936;2022-12-10T09:24:59;95960;;;0.5;84.5
68489;BME280;55481;48.764;8.936;2022-12-10T09:27:29;95960;;;0.5;84.5
68489;BME280;55481;48.764;8.936;2022-12-10T09:30:00;95950;;;0.4;84.5
68489;BME280;55481;48.764;8.936;2022-12-10T09:32:24;95950;;;0.6;84.5
68489;BME280;55481;48.764;8.936;2022-12-10T09:37:27;95960;;;0.6;84.5
68489;BME280;55481;48.764;8.936;2022-12-10T09:39:57;95960;;;0.6;84
68489;BME280;55481;48.764;8.936;2022-12-10T09:42:31;95960;;;0.7;84.5
68489;BME280;55481;48.764;8.936;2022-12-10T09:45:02;95950;;;0.8;84.5
68489;BME280;55481;48.764;8.936;2022-12-10T09:47:34;95960;;;0.8;84
68489;BME280;55481;48.764;8.936;2022-12-10T09:50:00;95960;;;0.7;84
68489;BME280;55481;48.764;8.936;2022-12-10T10:00:00;95960;;;0.5;84
68489;BME280;55481;48.764;8.936;2022-12-10T10:05:11;95960;;;0.8;84.5
68489;BME280;55481;48.764;8.936;2022-12-10T10:07:30;95950;;;0.8;84
68489;BME280;55481;48.764;8.936;2022-12-10T10:10:03;95950;;;0.8;84.5
68489;BME280;55481;48.764;8.936;2022-12-10T10:12:33;95950;;;0.9;84
68489;BME280;55481;48.764;8.936;2022-12-10T10:15:16;95950;;;1;84
68489;BME280;55481;48.764;8.936;2022-12-10T10:17:46;95950;;;1;84
68489;BME280;55481;48.764;8.936;2022-12-10T10:20:09;95950;;;1;84
68489;BME280;55481;48.764;8.936;2022-12-10T10:22:41;95950;;;1;84
68489;BME280;55481;48.764;8.936;2022-12-10T10:25:18;95950;;;1;84
68489;BME280;55481;48.764;8.936;2022-12-10T10:30:15;95940;;;0.8;84
68489;BME280;55481;48.764;8.936;2022-12-10T10:35:23;95950;;;1;84
68489;BME280;55481;48.764;8.936;2022-12-10T10:37:51;95950;;;1;84
68489;BME280;55481;48.764;8.936;2022-12-10T10:40:22;95950;;;0.9;84
68489;BME280;55481;48.764;8.936;2022-12-10T10:42:52;95950;;;0.9;84
68489;BME280;55481;48.764;8.936;2022-12-10T10:48:03;95960;;;0.7;84
68489;BME280;55481;48.764;8.936;2022-12-10T10:50:23;95960;;;0.9;84.5
68489;BME280;55481;48.764;8.936;2022-12-10T10:58:15;95950;;;1;84
68489;BME280;55481;48.764;8.936;2022-12-10T11:00:26;95960;;;1.2;84
68489;BME280;55481;48.764;8.936;2022-12-10T11:02:56;95960;;;1.5;84
68489;BME280;55481;48.764;8.936;2022-12-10T11:05:22;95960;;;1.4;83.5
68489;BME280;55481;48.764;8.936;2022-12-10T11:08:13;95960;;;1.2;83.5
68489;BME280;55481;48.764;8.936;2022-12-10T11:10:23;95960;;;1.2;84
68489;BME280;55481;48.764;8.936;2022-12-10T11:12:55;95960;;;1.3;84
68489;BME280;55481;48.764;8.936;2022-12-10T11:15:29;95960;;;1.1;84
68489;BME280;55481;48.764;8.936;2022-12-10T11:18:02;95970;;;1.2;84.5
68489;BME280;55481;48.764;8.936;2022-12-10T11:20:33;95970;;;1.2;84
68489;BME280;55481;48.764;8.936;2022-12-10T11:25:38;95970;;;1.3;84.5
68489;BME280;55481;48.764;8.936;2022-12-10T11:28:00;95970;;;1.4;84
68489;BME280;55481;48.764;8.936;2022-12-10T11:30:28;95970;;;1.3;84
68489;BME280;55481;48.764;8.936;2022-12-10T11:35:33;95970;;;1.1;84
68489;BME280;55481;48.764;8.936;2022-12-10T11:37:58;95960;;;1.2;84
68489;BME280;55481;48.764;8.936;2022-12-10T11:40:28;95970;;;1.3;84
68489;BME280;55481;48.764;8.936;2022-12-10T11:50:56;95960;;;1.2;84.5
68489;BME280;55481;48.764;8.936;2022-12-10T11:55:45;95960;;;1.3;84
68489;BME280;55481;48.764;8.936;2022-12-10T12:00:44;95960;;;0.9;84
68489;BME280;55481;48.764;8.936;2022-12-10T12:03:10;95970;;;0.9;84.5
68489;BME280;55481;48.764;8.936;2022-12-10T12:08:14;95970;;;1.3;84
68489;BME280;55481;48.764;8.936;2022-12-10T12:15:42;95980;;;1;84
68489;BME280;55481;48.764;8.936;2022-12-10T12:20:37;95980;;;1.2;84
68489;BME280;55481;48.764;8.936;2022-12-10T12:23:41;95980;;;1.1;84
68489;BME280;55481;48.764;8.936;2022-12-10T12:25:38;95980;;;1.1;84
68489;BME280;55481;48.764;8.936;2022-12-10T12:29:13;95990;;;1.1;84
68489;BME280;55481;48.764;8.936;2022-12-10T12:30:37;95990;;;1.2;84
68489;BME280;55481;48.764;8.936;2022-12-10T12:33:12;95990;;;1.2;84
68489;BME280;55481;48.764;8.936;2022-12-10T12:35:42;95990;;;1.1;84
68489;BME280;55481;48.764;8.936;2022-12-10T12:38:27;95990;;;1.1;84
68489;BME280;55481;48.764;8.936;2022-12-10T12:45:45;96000;;;1.3;84
68489;BME280;55481;48.764;8.936;2022-12-10T12:50:52;96010;;;1;84.5
68489;BME280;55481;48.764;8.936;2022-12-10T12:53:21;96020;;;0.8;85
68489;BME280;55481;48.764;8.936;2022-12-10T12:58:22;96020;;;0.7;85
68489;BME280;55481;48.764;8.936;2022-12-10T13:00:48;96020;;;0.9;85
68489;BME280;55481;48.764;8.936;2022-12-10T13:03:29;96020;;;0.9;85
68489;BME280;55481;48.764;8.936;2022-12-10T13:06:19;96030;;;0.8;84.5
68489;BME280;55481;48.764;8.936;2022-12-10T13:08:31;96030;;;0.8;84.5
68489;BME280;55481;48.764;8.936;2022-12-10T13:15:59;96030;;;0.9;84.5
68489;BME280;55481;48.764;8.936;2022-12-10T13:18:34;96030;;;0.9;84.5
68489;BME280;55481;48.764;8.936;2022-12-10T13:21:30;96040;;;0.7;84.5
68489;BME280;55481;48.764;8.936;2022-12-10T13:23:31;96030;;;0.7;84.5
68489;BME280;55481;48.764;8.936;2022-12-10T13:26:01;96040;;;0.6;85
68489;BME280;55481;48.764;8.936;2022-12-10T13:28:38;96040;;;0.6;84.5
68489;BME280;55481;48.764;8.936;2022-12-10T13:31:07;96040;;;0.7;85
68489;BME280;55481;48.764;8.936;2022-12-10T13:36:04;96050;;;0.7;84.5
68489;BME280;55481;48.764;8.936;2022-12-10T13:38:38;96050;;;0.7;84.5
68489;BME280;55481;48.764;8.936;2022-12-10T13:41:12;96060;;;0.7;84.5
68489;BME280;55481;48.764;8.936;2022-12-10T13:46:25;96070;;;0.7;85
68489;BME280;55481;48.764;8.936;2022-12-10T13:48:39;96080;;;0.7;85
68489;BME280;55481;48.764;8.936;2022-12-10T13:51:13;96070;;;0.7;84.5
68489;BME280;55481;48.764;8.936;2022-12-10T13:53:45;96070;;;0.6;84.5
68489;BME280;55481;48.764;8.936;2022-12-10T13:56:16;96090;;;0.6;85
68489;BME280;55481;48.764;8.936;2022-12-10T13:59:02;96090;;;0.7;85
68489;BME280;55481;48.764;8.936;2022-12-10T14:01:12;96100;;;0.6;85
68489;BME280;55481;48.764;8.936;2022-12-10T14:03:48;96100;;;0.6;85
68489;BME280;55481;48.764;8.936;2022-12-10T14:11:15;96100;;;0.5;85
68489;BME280;55481;48.764;8.936;2022-12-10T14:13:42;96100;;;0.5;84.5
68489;BME280;55481;48.764;8.936;2022-12-10T14:16:12;96110;;;0.5;85
68489;BME280;55481;48.764;8.936;2022-12-10T14:18:43;96110;;;0.5;85
68489;BME280;55481;48.764;8.936;2022-12-10T14:26:16;96110;;;0.5;84.5
68489;BME280;55481;48.764;8.936;2022-12-10T14:28:47;96120;;;0.4;85
68489;BME280;55481;48.764;8.936;2022-12-10T14:31:44;96120;;;0.4;85
68489;BME280;55481;48.764;8.936;2022-12-10T14:34:00;96120;;;0.4;84.5
68489;BME280;55481;48.764;8.936;2022-12-10T14:36:30;96130;;;0.2;85
68489;BME280;55481;48.764;8.936;2022-12-10T14:41:24;96130;;;0.4;85
68489;BME280;55481;48.764;8.936;2022-12-10T14:43:54;96140;;;0.4;85
68489;BME280;55481;48.764;8.936;2022-12-10T14:46:27;96140;;;0.5;85
68489;BME280;55481;48.764;8.936;2022-12-10T14:48:57;96140;;;0.5;84.5
68489;BME280;55481;48.764;8.936;2022-12-10T14:51:33;96140;;;0.3;84.5
68489;BME280;55481;48.764;8.936;2022-12-10T14:54:23;96150;;;0.2;84.5
68489;BME280;55481;48.764;8.936;2022-12-10T14:56:47;96140;;;0.2;85
68489;BME280;55481;48.764;8.936;2022-12-10T14:59:02;96150;;;0.2;84.5
68489;BME280;55481;48.764;8.936;2022-12-10T15:01:29;96150;;;0.3;85
68489;BME280;55481;48.764;8.936;2022-12-10T15:06:23;96150;;;0.5;84.5
68489;BME280;55481;48.764;8.936;2022-12-10T15:08:55;96150;;;0.3;84.5
68489;BME280;55481;48.764;8.936;2022-12-10T15:21:28;96180;;;0;85
68489;BME280;55481;48.764;8.936;2022-12-10T15:24:15;96170;;;0.1;85.5
68489;BME280;55481;48.764;8.936;2022-12-10T15:26:44;96170;;;0.1;85
68489;BME280;55481;48.764;8.936;2022-12-10T15:29:26;96170;;;0;85
68489;BME280;55481;48.764;8.936;2022-12-10T15:31:43;96180;;;0;85
68489;BME280;55481;48.764;8.936;2022-12-10T15:34:15;96180;;;-0.1;85.5
68489;BME280;55481;48.764;8.936;2022-12-10T15:36:48;96180;;;-0.1;85.5
68489;BME280;55481;48.764;8.936;2022-12-10T15:41:53;96180;;;0;85
68489;BME280;55481;48.764;8.936;2022-12-10T15:44:18;96180;;;-0.2;84.5
68489;BME280;55481;48.764;8.936;2022-12-10T15:49:10;96180;;;-0.3;84.5
68489;BME280;55481;48.764;8.936;2022-12-10T15:54:30;96180;;;-0.3;85
68489;BME280;55481;48.764;8.936;2022-12-10T15:56:49;96190;;;-0.4;85
68489;BME280;55481;48.764;8.936;2022-12-10T15:59:19;96190;;;-0.3;85
68489;BME280;55481;48.764;8.936;2022-12-10T16:04:13;96190;;;-0.5;84.5
68489;BME280;55481;48.764;8.936;2022-12-10T16:06:44;96190;;;-0.7;85
68489;BME280;55481;48.764;8.936;2022-12-10T16:09:15;96190;;;-0.6;85
68489;BME280;55481;48.764;8.936;2022-12-10T16:11:53;96200;;;-0.7;85
68489;BME280;55481;48.764;8.936;2022-12-10T16:21:55;96200;;;-0.9;85.5
68489;BME280;55481;48.764;8.936;2022-12-10T16:24:25;96200;;;-0.9;85.5
68489;BME280;55481;48.764;8.936;2022-12-10T16:26:55;96200;;;-0.9;85.5
68489;BME280;55481;48.764;8.936;2022-12-10T16:31:49;96210;;;-0.9;85.5
68489;BME280;55481;48.764;8.936;2022-12-10T16:34:20;96210;;;-1;85.5
68489;BME280;55481;48.764;8.936;2022-12-10T16:36:57;96210;;;-1;85.5
68489;BME280;55481;48.764;8.936;2022-12-10T16:41:53;96210;;;-1;85.5
68489;BME280;55481;48.764;8.936;2022-12-10T16:44:30;96210;;;-0.9;85.5
68489;BME280;55481;48.764;8.936;2022-12-10T16:47:10;96220;;;-0.9;85.5
68489;BME280;55481;48.764;8.936;2022-12-10T16:49:31;96220;;;-0.8;85.5
68489;BME280;55481;48.764;8.936;2022-12-10T16:54:26;96220;;;-0.9;85.5
68489;BME280;55481;48.764;8.936;2022-12-10T16:57:04;96230;;;-0.9;85.5
68489;BME280;55481;48.764;8.936;2022-12-10T17:01:58;96230;;;-0.9;85.5
68489;BME280;55481;48.764;8.936;2022-12-10T17:09:45;96240;;;-0.8;85.5
68489;BME280;55481;48.764;8.936;2022-12-10T17:12:07;96240;;;-0.8;85
68489;BME280;55481;48.764;8.936;2022-12-10T17:14:32;96240;;;-0.9;85
68489;BME280;55481;48.764;8.936;2022-12-10T17:17:02;96240;;;-0.9;85
68489;BME280;55481;48.764;8.936;2022-12-10T17:19:37;96240;;;-0.9;85
68489;BME280;55481;48.764;8.936;2022-12-10T17:27:02;96250;;;-0.8;85.5
68489;BME280;55481;48.764;8.936;2022-12-10T17:29:38;96250;;;-0.8;85
68489;BME280;55481;48.764;8.936;2022-12-10T17:34:31;96250;;;-0.7;85
68489;BME280;55481;48.764;8.936;2022-12-10T17:37:07;96250;;;-0.5;85
68489;BME280;55481;48.764;8.936;2022-12-10T17:42:09;96250;;;-0.7;85
68489;BME280;55481;48.764;8.936;2022-12-10T17:44:40;96250;;;-0.6;85
68489;BME280;55481;48.764;8.936;2022-12-10T17:47:16;96260;;;-0.5;85
68489;BME280;55481;48.764;8.936;2022-12-10T17:54:37;96260;;;-0.5;85
68489;BME280;55481;48.764;8.936;2022-12-10T17:57:18;96260;;;-0.6;85
68489;BME280;55481;48.764;8.936;2022-12-10T17:59:38;96260;;;-0.4;85
68489;BME280;55481;48.764;8.936;2022-12-10T18:02:09;96270;;;-0.4;85
68489;BME280;55481;48.764;8.936;2022-12-10T18:04:40;96270;;;-0.4;85
68489;BME280;55481;48.764;8.936;2022-12-10T18:07:11;96260;;;-0.4;85
68489;BME280;55481;48.764;8.936;2022-12-10T18:09:41;96270;;;-0.6;85
68489;BME280;55481;48.764;8.936;2022-12-10T18:12:12;96270;;;-0.6;85
68489;BME280;55481;48.764;8.936;2022-12-10T18:14:43;96270;;;-0.7;85
68489;BME280;55481;48.764;8.936;2022-12-10T18:17:20;96270;;;-0.7;85
68489;BME280;55481;48.764;8.936;2022-12-10T18:19:51;96270;;;-0.7;85
68489;BME280;55481;48.764;8.936;2022-12-10T18:22:29;96270;;;-0.7;85
68489;BME280;55481;48.764;8.936;2022-12-10T18:25:00;96270;;;-0.7;85
68489;BME280;55481;48.764;8.936;2022-12-10T18:29:48;96270;;;-0.6;85
68489;BME280;55481;48.764;8.936;2022-12-10T18:32:20;96280;;;-0.5;85
68489;BME280;55481;48.764;8.936;2022-12-10T18:34:50;96280;;;-0.4;85
68489;BME280;55481;48.764;8.936;2022-12-10T18:37:20;96280;;;-0.4;85
68489;BME280;55481;48.764;8.936;2022-12-10T18:42:21;96280;;;-0.5;84.5
68489;BME280;55481;48.764;8.936;2022-12-10T18:44:52;96280;;;-0.7;85
68489;BME280;55481;48.764;8.936;2022-12-10T18:54:55;96290;;;-0.8;85
68489;BME280;55481;48.764;8.936;2022-12-10T18:57:26;96290;;;-0.8;85
68489;BME280;55481;48.764;8.936;2022-12-10T19:02:34;96290;;;-0.6;85
68489;BME280;55481;48.764;8.936;2022-12-10T19:05:06;96280;;;-0.8;85
68489;BME280;55481;48.764;8.936;2022-12-10T19:07:36;96290;;;-0.8;85
68489;BME280;55481;48.764;8.936;2022-12-10T19:10:00;96280;;;-0.7;85
68489;BME280;55481;48.764;8.936;2022-12-10T19:15:15;96290;;;-0.9;85
68489;BME280;55481;48.764;8.936;2022-12-10T19:17:45;96290;;;-0.9;85
68489;BME280;55481;48.764;8.936;2022-12-10T19:20:16;96290;;;-0.8;85
68489;BME280;55481;48.764;8.936;2022-12-10T19:22:45;96290;;;-0.7;85
68489;BME280;55481;48.764;8.936;2022-12-10T19:25:15;96290;;;-0.4;85
68489;BME280;55481;48.764;8.936;2022-12-10T19:27:40;96300;;;-0.3;84.5
68489;BME280;55481;48.764;8.936;2022-12-10T19:30:15;96290;;;-0.5;84
68489;BME280;55481;48.764;8.936;2022-12-10T19:35:08;96290;;;-0.8;84.5
68489;BME280;55481;48.764;8.936;2022-12-10T19:37:37;96290;;;-0.7;85
68489;BME280;55481;48.764;8.936;2022-12-10T19:40:09;96290;;;-0.7;84.5
68489;BME280;55481;48.764;8.936;2022-12-10T19:42:39;96290;;;-0.9;85
68489;BME280;55481;48.764;8.936;2022-12-10T19:45:10;96300;;;-0.8;85